sensor_id;sensor_type;location;lat;lon;timestamp;P1;durP1;ratioP1;P2;durP2;ratioP2
11735;SDS011;5924;51.398;7.088;2024-01-15T00:01:55;88.37;;;26.13;;
11735;SDS011;5924;51.398;7.088;2024-01-15T00:04:21;74.50;;;25.93;;
11735;SDS011;5924;51.398;7.088;2024-01-15T00:06:46;81.13;;;29.77;;
11735;SDS011;5924;51.398;7.088;2024-01-15T00:09:12;77.40;;;27.83;;
11735;SDS011;5924;51.398;7.088;2024-01-15T00:11:37;78.80;;;28.30;;
11735;SDS011;5924;51.398;7.088;2024-01-15T00:14:03;93.20;;;29.10;;
11735;SDS011;5924;51.398;7.088;2024-01-15T00:16:29;82.70;;;27.27;;
11735;SDS011;5924;51.398;7.088;2024-01-15T00:18:54;67.40;;;26.30;;
11735;SDS011;5924;51.398;7.088;2024-01-15T00:21:20;88.93;;;28.07;;
11735;SDS011;5924;51.398;7.088;2024-01-15T00:23:46;102.23;;;29.73;;
11735;SDS011;5924;51.398;7.088;2024-01-15T00:26:11;75.63;;;26.57;;
11735;SDS011;5924;51.398;7.088;2024-01-15T00:28:37;77.70;;;27.73;;
11735;SDS011;5924;51.398;7.088;2024-01-15T00:31:06;91.37;;;27.47;;
11735;SDS011;5924;51.398;7.088;2024-01-15T00:33:32;101.00;;;29.20;;
11735;SDS011;5924;51.398;7.088;2024-01-15T00:35:58;82.87;;;28.13;;
11735;SDS011;5924;51.398;7.088;2024-01-15T00:38:23;87.47;;;30.80;;
11735;SDS011;5924;51.398;7.088;2024-01-15T00:40:49;73.80;;;27.00;;
11735;SDS011;5924;51.398;7.088;2024-01-15T00:43:15;105.97;;;29.90;;
11735;SDS011;5924;51.398;7.088;2024-01-15T00:45:43;83.50;;;26.70;;
11735;SDS011;5924;51.398;7.088;2024-01-15T00:48:08;100.23;;;29.20;;
11735;SDS011;5924;51.398;7.088;2024-01-15T00:50:34;83.90;;;28.50;;
11735;SDS011;5924;51.398;7.088;2024-01-15T00:53:00;83.87;;;28.27;;
11735;SDS011;5924;51.398;7.088;2024-01-15T00:55:26;91.57;;;30.23;;
11735;SDS011;5924;51.398;7.088;2024-01-15T00:57:53;102.47;;;31.93;;
11735;SDS011;5924;51.398;7.088;2024-01-15T01:00:18;99.17;;;29.90;;
11735;SDS011;5924;51.398;7.088;2024-01-15T01:02:44;93.43;;;27.53;;
11735;SDS011;5924;51.398;7.088;2024-01-15T01:05:10;92.83;;;28.77;;
11735;SDS011;5924;51.398;7.088;2024-01-15T01:07:35;92.90;;;30.77;;
11735;SDS011;5924;51.398;7.088;2024-01-15T01:10:01;76.07;;;27.70;;
11735;SDS011;5924;51.398;7.088;2024-01-15T01:12:27;70.27;;;27.10;;
11735;SDS011;5924;51.398;7.088;2024-01-15T01:14:53;87.03;;;28.30;;
11735;SDS011;5924;51.398;7.088;2024-01-15T01:17:18;73.33;;;28.83;;
11735;SDS011;5924;51.398;7.088;2024-01-15T01:19:44;82.87;;;27.33;;
11735;SDS011;5924;51.398;7.088;2024-01-15T01:22:09;86.90;;;27.17;;
11735;SDS011;5924;51.398;7.088;2024-01-15T01:24:35;91.07;;;29.37;;
11735;SDS011;5924;51.398;7.088;2024-01-15T01:27:00;80.83;;;28.23;;
11735;SDS011;5924;51.398;7.088;2024-01-15T01:29:26;92.00;;;28.60;;
11735;SDS011;5924;51.398;7.088;2024-01-15T01:31:52;87.87;;;28.50;;
11735;SDS011;5924;51.398;7.088;2024-01-15T01:34:17;88.30;;;28.90;;
11735;SDS011;5924;51.398;7.088;2024-01-15T01:36:43;90.37;;;26.93;;
11735;SDS011;5924;51.398;7.088;2024-01-15T01:39:09;75.40;;;27.90;;
11735;SDS011;5924;51.398;7.088;2024-01-15T01:41:35;78.80;;;27.77;;
11735;SDS011;5924;51.398;7.088;2024-01-15T01:44:00;88.67;;;27.03;;
11735;SDS011;5924;51.398;7.088;2024-01-15T01:46:27;85.03;;;26.07;;
11735;SDS011;5924;51.398;7.088;2024-01-15T01:48:54;79.17;;;25.93;;
11735;SDS011;5924;51.398;7.088;2024-01-15T01:51:24;72.97;;;27.07;;
11735;SDS011;5924;51.398;7.088;2024-01-15T01:53:50;82.63;;;27.67;;
11735;SDS011;5924;51.398;7.088;2024-01-15T01:56:17;85.50;;;28.30;;
11735;SDS011;5924;51.398;7.088;2024-01-15T01:58:43;87.00;;;26.37;;
11735;SDS011;5924;51.398;7.088;2024-01-15T02:01:10;99.07;;;29.20;;
11735;SDS011;5924;51.398;7.088;2024-01-15T02:03:38;84.77;;;26.20;;
11735;SDS011;5924;51.398;7.088;2024-01-15T02:06:05;72.53;;;25.60;;
11735;SDS011;5924;51.398;7.088;2024-01-15T02:08:31;72.53;;;26.93;;
11735;SDS011;5924;51.398;7.088;2024-01-15T02:10:56;81.90;;;28.20;;
11735;SDS011;5924;51.398;7.088;2024-01-15T02:13:22;90.43;;;27.10;;
11735;SDS011;5924;51.398;7.088;2024-01-15T02:15:48;91.37;;;28.50;;
11735;SDS011;5924;51.398;7.088;2024-01-15T02:18:13;78.17;;;27.07;;
11735;SDS011;5924;51.398;7.088;2024-01-15T02:20:39;75.23;;;27.17;;
11735;SDS011;5924;51.398;7.088;2024-01-15T02:23:07;83.27;;;25.67;;
11735;SDS011;5924;51.398;7.088;2024-01-15T02:25:38;82.97;;;27.87;;
11735;SDS011;5924;51.398;7.088;2024-01-15T02:28:06;69.43;;;27.10;;
11735;SDS011;5924;51.398;7.088;2024-01-15T02:30:34;79.17;;;29.70;;
11735;SDS011;5924;51.398;7.088;2024-01-15T02:33:04;67.20;;;26.40;;
11735;SDS011;5924;51.398;7.088;2024-01-15T02:35:29;85.67;;;27.10;;
11735;SDS011;5924;51.398;7.088;2024-01-15T02:37:55;80.17;;;26.37;;
11735;SDS011;5924;51.398;7.088;2024-01-15T02:40:21;78.23;;;28.27;;
11735;SDS011;5924;51.398;7.088;2024-01-15T02:42:46;71.90;;;26.60;;
11735;SDS011;5924;51.398;7.088;2024-01-15T02:45:12;79.87;;;28.07;;
11735;SDS011;5924;51.398;7.088;2024-01-15T02:47:38;82.13;;;26.63;;
11735;SDS011;5924;51.398;7.088;2024-01-15T02:50:03;76.13;;;26.97;;
11735;SDS011;5924;51.398;7.088;2024-01-15T02:52:30;79.83;;;27.60;;
11735;SDS011;5924;51.398;7.088;2024-01-15T02:54:55;65.67;;;26.40;;
11735;SDS011;5924;51.398;7.088;2024-01-15T02:57:21;78.40;;;25.10;;
11735;SDS011;5924;51.398;7.088;2024-01-15T02:59:46;74.37;;;26.10;;
11735;SDS011;5924;51.398;7.088;2024-01-15T03:02:12;78.10;;;26.70;;
11735;SDS011;5924;51.398;7.088;2024-01-15T03:04:42;68.50;;;24.50;;
11735;SDS011;5924;51.398;7.088;2024-01-15T03:07:11;76.83;;;27.00;;
11735;SDS011;5924;51.398;7.088;2024-01-15T03:09:37;59.07;;;23.73;;
11735;SDS011;5924;51.398;7.088;2024-01-15T03:12:02;70.33;;;26.50;;
11735;SDS011;5924;51.398;7.088;2024-01-15T03:14:28;66.20;;;25.00;;
11735;SDS011;5924;51.398;7.088;2024-01-15T03:16:54;76.20;;;25.27;;
11735;SDS011;5924;51.398;7.088;2024-01-15T03:19:20;77.30;;;25.37;;
11735;SDS011;5924;51.398;7.088;2024-01-15T03:21:45;69.70;;;27.40;;
11735;SDS011;5924;51.398;7.088;2024-01-15T03:24:11;64.43;;;24.20;;
11735;SDS011;5924;51.398;7.088;2024-01-15T03:26:37;70.40;;;25.30;;
11735;SDS011;5924;51.398;7.088;2024-01-15T03:29:02;66.40;;;23.00;;
11735;SDS011;5924;51.398;7.088;2024-01-15T03:31:28;62.73;;;24.67;;
11735;SDS011;5924;51.398;7.088;2024-01-15T03:33:54;48.33;;;21.83;;
11735;SDS011;5924;51.398;7.088;2024-01-15T03:36:19;59.23;;;21.73;;
11735;SDS011;5924;51.398;7.088;2024-01-15T03:38:45;52.73;;;20.53;;
11735;SDS011;5924;51.398;7.088;2024-01-15T03:41:11;52.80;;;21.00;;
11735;SDS011;5924;51.398;7.088;2024-01-15T03:43:36;49.30;;;20.30;;
11735;SDS011;5924;51.398;7.088;2024-01-15T03:46:02;45.60;;;18.30;;
11735;SDS011;5924;51.398;7.088;2024-01-15T03:48:29;45.87;;;19.53;;
11735;SDS011;5924;51.398;7.088;2024-01-15T03:50:55;40.63;;;18.00;;
11735;SDS011;5924;51.398;7.088;2024-01-15T03:53:21;47.80;;;17.90;;
11735;SDS011;5924;51.398;7.088;2024-01-15T03:55:46;49.90;;;17.90;;
11735;SDS011;5924;51.398;7.088;2024-01-15T03:58:12;53.03;;;19.30;;
11735;SDS011;5924;51.398;7.088;2024-01-15T04:00:39;64.20;;;19.70;;
11735;SDS011;5924;51.398;7.088;2024-01-15T04:03:05;51.13;;;18.77;;
11735;SDS011;5924;51.398;7.088;2024-01-15T04:05:31;52.57;;;19.40;;
11735;SDS011;5924;51.398;7.088;2024-01-15T04:07:57;46.93;;;17.67;;
11735;SDS011;5924;51.398;7.088;2024-01-15T04:10:22;52.20;;;20.13;;
11735;SDS011;5924;51.398;7.088;2024-01-15T04:12:48;38.80;;;17.80;;
11735;SDS011;5924;51.398;7.088;2024-01-15T04:15:14;49.13;;;19.50;;
11735;SDS011;5924;51.398;7.088;2024-01-15T04:17:40;58.23;;;18.63;;
11735;SDS011;5924;51.398;7.088;2024-01-15T04:20:05;48.97;;;18.50;;
11735;SDS011;5924;51.398;7.088;2024-01-15T04:22:32;37.67;;;17.20;;
11735;SDS011;5924;51.398;7.088;2024-01-15T04:25:02;45.07;;;17.23;;
11735;SDS011;5924;51.398;7.088;2024-01-15T04:27:28;35.90;;;17.03;;
11735;SDS011;5924;51.398;7.088;2024-01-15T04:29:54;41.20;;;15.83;;
11735;SDS011;5924;51.398;7.088;2024-01-15T04:32:19;36.33;;;16.33;;
11735;SDS011;5924;51.398;7.088;2024-01-15T04:34:45;37.93;;;17.43;;
11735;SDS011;5924;51.398;7.088;2024-01-15T04:37:11;46.87;;;18.40;;
11735;SDS011;5924;51.398;7.088;2024-01-15T04:39:38;47.93;;;17.70;;
11735;SDS011;5924;51.398;7.088;2024-01-15T04:42:03;45.63;;;18.10;;
11735;SDS011;5924;51.398;7.088;2024-01-15T04:44:29;41.57;;;18.47;;
11735;SDS011;5924;51.398;7.088;2024-01-15T04:46:55;49.10;;;16.50;;
11735;SDS011;5924;51.398;7.088;2024-01-15T04:49:20;44.93;;;17.23;;
11735;SDS011;5924;51.398;7.088;2024-01-15T04:51:46;46.70;;;16.63;;
11735;SDS011;5924;51.398;7.088;2024-01-15T04:54:12;49.70;;;19.27;;
11735;SDS011;5924;51.398;7.088;2024-01-15T04:56:37;42.63;;;17.80;;
11735;SDS011;5924;51.398;7.088;2024-01-15T04:59:03;35.93;;;16.57;;
11735;SDS011;5924;51.398;7.088;2024-01-15T05:01:32;42.97;;;17.87;;
11735;SDS011;5924;51.398;7.088;2024-01-15T05:03:58;36.97;;;17.40;;
11735;SDS011;5924;51.398;7.088;2024-01-15T05:06:24;41.43;;;15.70;;
11735;SDS011;5924;51.398;7.088;2024-01-15T05:08:49;37.30;;;15.97;;
11735;SDS011;5924;51.398;7.088;2024-01-15T05:11:15;37.10;;;15.77;;
11735;SDS011;5924;51.398;7.088;2024-01-15T05:13:40;41.63;;;17.63;;
11735;SDS011;5924;51.398;7.088;2024-01-15T05:16:06;37.67;;;18.93;;
11735;SDS011;5924;51.398;7.088;2024-01-15T05:18:32;40.10;;;18.33;;
11735;SDS011;5924;51.398;7.088;2024-01-15T05:20:58;35.70;;;16.97;;
11735;SDS011;5924;51.398;7.088;2024-01-15T05:23:23;43.53;;;17.30;;
11735;SDS011;5924;51.398;7.088;2024-01-15T05:25:49;39.90;;;17.37;;
11735;SDS011;5924;51.398;7.088;2024-01-15T05:28:15;37.70;;;16.50;;
11735;SDS011;5924;51.398;7.088;2024-01-15T05:30:41;36.40;;;17.17;;
11735;SDS011;5924;51.398;7.088;2024-01-15T05:33:06;42.20;;;17.30;;
11735;SDS011;5924;51.398;7.088;2024-01-15T05:35:32;38.47;;;16.90;;
11735;SDS011;5924;51.398;7.088;2024-01-15T05:37:58;37.87;;;15.57;;
11735;SDS011;5924;51.398;7.088;2024-01-15T05:40:24;39.03;;;16.50;;
11735;SDS011;5924;51.398;7.088;2024-01-15T05:42:50;36.63;;;15.80;;
11735;SDS011;5924;51.398;7.088;2024-01-15T05:45:15;33.73;;;14.30;;
11735;SDS011;5924;51.398;7.088;2024-01-15T05:47:41;33.63;;;15.23;;
11735;SDS011;5924;51.398;7.088;2024-01-15T05:50:09;55.63;;;17.03;;
11735;SDS011;5924;51.398;7.088;2024-01-15T05:52:34;27.57;;;12.93;;
11735;SDS011;5924;51.398;7.088;2024-01-15T05:55:00;36.93;;;14.23;;
11735;SDS011;5924;51.398;7.088;2024-01-15T05:57:26;29.63;;;13.93;;
11735;SDS011;5924;51.398;7.088;2024-01-15T05:59:53;36.83;;;12.93;;
11735;SDS011;5924;51.398;7.088;2024-01-15T06:02:18;23.90;;;12.83;;
11735;SDS011;5924;51.398;7.088;2024-01-15T06:04:44;25.30;;;12.23;;
11735;SDS011;5924;51.398;7.088;2024-01-15T06:07:10;38.17;;;13.50;;
11735;SDS011;5924;51.398;7.088;2024-01-15T06:09:35;26.43;;;13.23;;
11735;SDS011;5924;51.398;7.088;2024-01-15T06:12:01;31.20;;;13.97;;
11735;SDS011;5924;51.398;7.088;2024-01-15T06:14:27;28.53;;;12.77;;
11735;SDS011;5924;51.398;7.088;2024-01-15T06:16:52;26.07;;;12.03;;
11735;SDS011;5924;51.398;7.088;2024-01-15T06:19:18;27.57;;;11.50;;
11735;SDS011;5924;51.398;7.088;2024-01-15T06:21:44;24.97;;;14.10;;
11735;SDS011;5924;51.398;7.088;2024-01-15T06:24:09;28.53;;;13.07;;
11735;SDS011;5924;51.398;7.088;2024-01-15T06:26:35;24.57;;;12.90;;
11735;SDS011;5924;51.398;7.088;2024-01-15T06:29:01;28.53;;;12.30;;
11735;SDS011;5924;51.398;7.088;2024-01-15T06:31:28;23.87;;;13.23;;
11735;SDS011;5924;51.398;7.088;2024-01-15T06:33:54;27.43;;;13.47;;
11735;SDS011;5924;51.398;7.088;2024-01-15T06:36:20;26.10;;;12.60;;
11735;SDS011;5924;51.398;7.088;2024-01-15T06:38:46;29.53;;;12.83;;
11735;SDS011;5924;51.398;7.088;2024-01-15T06:41:12;33.07;;;13.07;;
11735;SDS011;5924;51.398;7.088;2024-01-15T06:43:37;39.47;;;13.50;;
11735;SDS011;5924;51.398;7.088;2024-01-15T06:46:03;27.50;;;14.10;;
11735;SDS011;5924;51.398;7.088;2024-01-15T06:48:29;30.17;;;14.37;;
11735;SDS011;5924;51.398;7.088;2024-01-15T06:50:54;32.27;;;14.03;;
11735;SDS011;5924;51.398;7.088;2024-01-15T06:53:20;35.73;;;14.93;;
11735;SDS011;5924;51.398;7.088;2024-01-15T06:55:46;42.43;;;14.73;;
11735;SDS011;5924;51.398;7.088;2024-01-15T06:58:11;31.87;;;16.00;;
11735;SDS011;5924;51.398;7.088;2024-01-15T07:00:37;32.97;;;14.90;;
11735;SDS011;5924;51.398;7.088;2024-01-15T07:03:03;36.83;;;15.00;;
11735;SDS011;5924;51.398;7.088;2024-01-15T07:05:29;33.70;;;15.67;;
11735;SDS011;5924;51.398;7.088;2024-01-15T07:07:55;37.30;;;15.50;;
11735;SDS011;5924;51.398;7.088;2024-01-15T07:10:21;21.60;;;14.00;;
11735;SDS011;5924;51.398;7.088;2024-01-15T07:12:47;35.80;;;14.33;;
11735;SDS011;5924;51.398;7.088;2024-01-15T07:15:13;28.73;;;14.17;;
11735;SDS011;5924;51.398;7.088;2024-01-15T07:17:39;34.70;;;13.03;;
11735;SDS011;5924;51.398;7.088;2024-01-15T07:20:08;26.13;;;12.17;;
11735;SDS011;5924;51.398;7.088;2024-01-15T07:22:37;25.47;;;12.50;;
11735;SDS011;5924;51.398;7.088;2024-01-15T07:25:03;22.60;;;11.83;;
11735;SDS011;5924;51.398;7.088;2024-01-15T07:27:32;21.60;;;12.53;;
11735;SDS011;5924;51.398;7.088;2024-01-15T07:29:58;22.50;;;11.97;;
11735;SDS011;5924;51.398;7.088;2024-01-15T07:32:24;19.80;;;11.00;;
11735;SDS011;5924;51.398;7.088;2024-01-15T07:34:49;27.30;;;12.10;;
11735;SDS011;5924;51.398;7.088;2024-01-15T07:37:15;29.40;;;14.30;;
11735;SDS011;5924;51.398;7.088;2024-01-15T07:39:41;27.20;;;11.60;;
11735;SDS011;5924;51.398;7.088;2024-01-15T07:42:06;20.27;;;11.90;;
11735;SDS011;5924;51.398;7.088;2024-01-15T07:44:32;22.40;;;12.10;;
11735;SDS011;5924;51.398;7.088;2024-01-15T07:46:58;18.20;;;12.00;;
11735;SDS011;5924;51.398;7.088;2024-01-15T07:49:24;21.37;;;11.60;;
11735;SDS011;5924;51.398;7.088;2024-01-15T07:51:50;18.93;;;9.33;;
11735;SDS011;5924;51.398;7.088;2024-01-15T07:54:16;14.23;;;8.93;;
11735;SDS011;5924;51.398;7.088;2024-01-15T07:59:19;12.73;;;8.90;;
11735;SDS011;5924;51.398;7.088;2024-01-15T08:01:45;14.53;;;9.60;;
11735;SDS011;5924;51.398;7.088;2024-01-15T08:04:10;17.13;;;11.80;;
11735;SDS011;5924;51.398;7.088;2024-01-15T08:06:38;17.00;;;9.77;;
11735;SDS011;5924;51.398;7.088;2024-01-15T08:09:03;15.70;;;10.13;;
11735;SDS011;5924;51.398;7.088;2024-01-15T08:11:29;13.47;;;9.10;;
11735;SDS011;5924;51.398;7.088;2024-01-15T08:13:55;16.10;;;9.63;;
11735;SDS011;5924;51.398;7.088;2024-01-15T08:16:21;19.80;;;9.57;;
11735;SDS011;5924;51.398;7.088;2024-01-15T08:18:47;15.20;;;10.03;;
11735;SDS011;5924;51.398;7.088;2024-01-15T08:21:13;15.63;;;10.40;;
11735;SDS011;5924;51.398;7.088;2024-01-15T08:23:38;17.57;;;10.60;;
11735;SDS011;5924;51.398;7.088;2024-01-15T08:26:04;20.30;;;11.40;;
11735;SDS011;5924;51.398;7.088;2024-01-15T08:28:30;21.60;;;12.70;;
11735;SDS011;5924;51.398;7.088;2024-01-15T08:30:56;15.03;;;10.80;;
11735;SDS011;5924;51.398;7.088;2024-01-15T08:33:21;22.23;;;11.40;;
11735;SDS011;5924;51.398;7.088;2024-01-15T08:35:47;18.30;;;10.97;;
11735;SDS011;5924;51.398;7.088;2024-01-15T08:38:13;22.17;;;11.80;;
11735;SDS011;5924;51.398;7.088;2024-01-15T08:40:39;19.70;;;11.60;;
11735;SDS011;5924;51.398;7.088;2024-01-15T08:43:04;30.27;;;11.53;;
11735;SDS011;5924;51.398;7.088;2024-01-15T08:45:31;17.90;;;10.77;;
11735;SDS011;5924;51.398;7.088;2024-01-15T08:47:58;18.00;;;10.87;;
11735;SDS011;5924;51.398;7.088;2024-01-15T08:50:23;19.10;;;12.00;;
11735;SDS011;5924;51.398;7.088;2024-01-15T08:52:49;17.90;;;11.53;;
11735;SDS011;5924;51.398;7.088;2024-01-15T08:55:14;26.50;;;12.80;;
11735;SDS011;5924;51.398;7.088;2024-01-15T08:57:40;28.63;;;14.60;;
11735;SDS011;5924;51.398;7.088;2024-01-15T09:00:06;25.60;;;13.73;;
11735;SDS011;5924;51.398;7.088;2024-01-15T09:02:35;26.10;;;13.90;;
11735;SDS011;5924;51.398;7.088;2024-01-15T09:05:01;27.07;;;15.57;;
11735;SDS011;5924;51.398;7.088;2024-01-15T09:07:27;33.43;;;15.90;;
11735;SDS011;5924;51.398;7.088;2024-01-15T09:09:52;31.27;;;16.00;;
11735;SDS011;5924;51.398;7.088;2024-01-15T09:12:18;28.23;;;15.80;;
11735;SDS011;5924;51.398;7.088;2024-01-15T09:14:46;41.53;;;15.53;;
11735;SDS011;5924;51.398;7.088;2024-01-15T09:17:12;24.63;;;13.83;;
11735;SDS011;5924;51.398;7.088;2024-01-15T09:19:38;27.50;;;14.13;;
11735;SDS011;5924;51.398;7.088;2024-01-15T09:22:06;31.27;;;16.17;;
11735;SDS011;5924;51.398;7.088;2024-01-15T09:24:32;16.40;;;12.17;;
11735;SDS011;5924;51.398;7.088;2024-01-15T09:26:58;18.83;;;10.83;;
11735;SDS011;5924;51.398;7.088;2024-01-15T09:29:24;21.03;;;12.20;;
11735;SDS011;5924;51.398;7.088;2024-01-15T09:31:50;15.30;;;11.10;;
11735;SDS011;5924;51.398;7.088;2024-01-15T09:34:17;22.73;;;10.40;;
11735;SDS011;5924;51.398;7.088;2024-01-15T09:36:43;10.70;;;9.27;;
11735;SDS011;5924;51.398;7.088;2024-01-15T09:39:09;12.67;;;8.30;;
11735;SDS011;5924;51.398;7.088;2024-01-15T09:41:36;12.53;;;8.10;;
11735;SDS011;5924;51.398;7.088;2024-01-15T09:44:03;7.07;;;6.37;;
11735;SDS011;5924;51.398;7.088;2024-01-15T09:46:30;11.33;;;7.47;;
11735;SDS011;5924;51.398;7.088;2024-01-15T09:48:57;10.10;;;6.80;;
11735;SDS011;5924;51.398;7.088;2024-01-15T09:51:23;6.70;;;6.10;;
11735;SDS011;5924;51.398;7.088;2024-01-15T09:53:50;8.10;;;6.73;;
11735;SDS011;5924;51.398;7.088;2024-01-15T09:56:16;6.83;;;6.23;;
11735;SDS011;5924;51.398;7.088;2024-01-15T09:58:42;6.80;;;6.20;;
11735;SDS011;5924;51.398;7.088;2024-01-15T10:01:09;5.73;;;5.30;;
11735;SDS011;5924;51.398;7.088;2024-01-15T10:03:36;7.10;;;5.70;;
11735;SDS011;5924;51.398;7.088;2024-01-15T10:06:03;9.03;;;6.60;;
11735;SDS011;5924;51.398;7.088;2024-01-15T10:08:29;8.40;;;6.77;;
11735;SDS011;5924;51.398;7.088;2024-01-15T10:10:55;10.87;;;6.90;;
11735;SDS011;5924;51.398;7.088;2024-01-15T10:13:20;7.70;;;6.60;;
11735;SDS011;5924;51.398;7.088;2024-01-15T10:15:47;10.27;;;8.47;;
11735;SDS011;5924;51.398;7.088;2024-01-15T10:18:13;9.10;;;7.23;;
11735;SDS011;5924;51.398;7.088;2024-01-15T10:20:39;11.07;;;8.80;;
11735;SDS011;5924;51.398;7.088;2024-01-15T10:23:05;11.70;;;8.60;;
11735;SDS011;5924;51.398;7.088;2024-01-15T10:25:30;8.90;;;7.20;;
11735;SDS011;5924;51.398;7.088;2024-01-15T10:28:00;15.80;;;8.90;;
11735;SDS011;5924;51.398;7.088;2024-01-15T10:30:26;8.80;;;7.80;;
11735;SDS011;5924;51.398;7.088;2024-01-15T10:33:01;11.20;;;8.50;;
11735;SDS011;5924;51.398;7.088;2024-01-15T10:35:29;12.77;;;9.50;;
11735;SDS011;5924;51.398;7.088;2024-01-15T10:37:56;14.40;;;8.90;;
11735;SDS011;5924;51.398;7.088;2024-01-15T10:40:23;12.77;;;8.40;;
11735;SDS011;5924;51.398;7.088;2024-01-15T10:42:48;12.93;;;8.20;;
11735;SDS011;5924;51.398;7.088;2024-01-15T10:45:14;9.60;;;8.10;;
11735;SDS011;5924;51.398;7.088;2024-01-15T10:47:40;11.80;;;6.83;;
11735;SDS011;5924;51.398;7.088;2024-01-15T10:50:07;7.73;;;6.87;;
11735;SDS011;5924;51.398;7.088;2024-01-15T10:52:37;12.23;;;7.23;;
11735;SDS011;5924;51.398;7.088;2024-01-15T10:55:05;8.30;;;7.40;;
11735;SDS011;5924;51.398;7.088;2024-01-15T10:57:34;6.83;;;6.13;;
11735;SDS011;5924;51.398;7.088;2024-01-15T11:00:00;12.00;;;7.03;;
11735;SDS011;5924;51.398;7.088;2024-01-15T11:02:30;9.03;;;6.40;;
11735;SDS011;5924;51.398;7.088;2024-01-15T11:05:01;9.10;;;7.13;;
11735;SDS011;5924;51.398;7.088;2024-01-15T11:07:26;10.37;;;6.97;;
11735;SDS011;5924;51.398;7.088;2024-01-15T11:09:55;6.53;;;5.97;;
11735;SDS011;5924;51.398;7.088;2024-01-15T11:12:20;10.10;;;7.40;;
11735;SDS011;5924;51.398;7.088;2024-01-15T11:14:46;9.30;;;6.93;;
11735;SDS011;5924;51.398;7.088;2024-01-15T11:17:13;10.40;;;7.60;;
11735;SDS011;5924;51.398;7.088;2024-01-15T11:19:44;12.60;;;7.87;;
11735;SDS011;5924;51.398;7.088;2024-01-15T11:24:54;14.80;;;7.30;;
11735;SDS011;5924;51.398;7.088;2024-01-15T11:27:39;10.37;;;7.00;;
11735;SDS011;5924;51.398;7.088;2024-01-15T11:30:07;12.83;;;8.00;;
11735;SDS011;5924;51.398;7.088;2024-01-15T11:32:35;9.00;;;7.30;;
11735;SDS011;5924;51.398;7.088;2024-01-15T11:35:01;8.60;;;7.60;;
11735;SDS011;5924;51.398;7.088;2024-01-15T11:43:04;12.13;;;8.83;;
11735;SDS011;5924;51.398;7.088;2024-01-15T11:45:31;24.67;;;11.60;;
11735;SDS011;5924;51.398;7.088;2024-01-15T11:48:14;17.50;;;9.50;;
11735;SDS011;5924;51.398;7.088;2024-01-15T11:53:20;14.50;;;10.60;;
11735;SDS011;5924;51.398;7.088;2024-01-15T11:55:46;18.43;;;9.80;;
11735;SDS011;5924;51.398;7.088;2024-01-15T11:58:13;16.20;;;11.17;;
11735;SDS011;5924;51.398;7.088;2024-01-15T12:00:40;16.13;;;10.57;;
11735;SDS011;5924;51.398;7.088;2024-01-15T12:03:08;15.23;;;9.50;;
11735;SDS011;5924;51.398;7.088;2024-01-15T12:05:36;13.63;;;10.13;;
11735;SDS011;5924;51.398;7.088;2024-01-15T12:08:03;21.47;;;9.33;;
11735;SDS011;5924;51.398;7.088;2024-01-15T12:10:35;14.63;;;10.00;;
11735;SDS011;5924;51.398;7.088;2024-01-15T12:13:12;13.80;;;8.60;;
11735;SDS011;5924;51.398;7.088;2024-01-15T12:15:39;22.53;;;8.90;;
11735;SDS011;5924;51.398;7.088;2024-01-15T12:18:09;19.70;;;9.10;;
11735;SDS011;5924;51.398;7.088;2024-01-15T12:20:36;10.00;;;8.43;;
11735;SDS011;5924;51.398;7.088;2024-01-15T12:23:02;9.83;;;7.10;;
11735;SDS011;5924;51.398;7.088;2024-01-15T12:25:29;16.53;;;8.97;;
11735;SDS011;5924;51.398;7.088;2024-01-15T12:27:56;10.97;;;8.70;;
11735;SDS011;5924;51.398;7.088;2024-01-15T12:30:22;13.30;;;8.30;;
11735;SDS011;5924;51.398;7.088;2024-01-15T12:32:47;9.37;;;8.40;;
11735;SDS011;5924;51.398;7.088;2024-01-15T12:35:13;14.40;;;8.27;;
11735;SDS011;5924;51.398;7.088;2024-01-15T12:37:40;14.97;;;8.40;;
11735;SDS011;5924;51.398;7.088;2024-01-15T12:40:07;14.33;;;8.10;;
11735;SDS011;5924;51.398;7.088;2024-01-15T12:42:35;12.43;;;7.00;;
11735;SDS011;5924;51.398;7.088;2024-01-15T12:45:07;11.77;;;5.37;;
11735;SDS011;5924;51.398;7.088;2024-01-15T12:47:34;7.47;;;6.20;;
11735;SDS011;5924;51.398;7.088;2024-01-15T12:50:01;5.10;;;4.67;;
11735;SDS011;5924;51.398;7.088;2024-01-15T12:52:28;9.83;;;6.70;;
11735;SDS011;5924;51.398;7.088;2024-01-15T12:54:54;8.23;;;4.70;;
11735;SDS011;5924;51.398;7.088;2024-01-15T12:57:20;5.70;;;5.10;;
11735;SDS011;5924;51.398;7.088;2024-01-15T12:59:46;7.73;;;4.47;;
11735;SDS011;5924;51.398;7.088;2024-01-15T13:02:15;6.80;;;4.60;;
11735;SDS011;5924;51.398;7.088;2024-01-15T13:04:41;7.73;;;5.13;;
11735;SDS011;5924;51.398;7.088;2024-01-15T13:07:07;8.73;;;4.80;;
11735;SDS011;5924;51.398;7.088;2024-01-15T13:09:33;6.23;;;5.50;;
11735;SDS011;5924;51.398;7.088;2024-01-15T13:12:00;8.00;;;5.07;;
11735;SDS011;5924;51.398;7.088;2024-01-15T13:14:27;8.07;;;5.60;;
11735;SDS011;5924;51.398;7.088;2024-01-15T13:16:53;7.33;;;5.37;;
11735;SDS011;5924;51.398;7.088;2024-01-15T13:19:19;8.23;;;4.70;;
11735;SDS011;5924;51.398;7.088;2024-01-15T13:21:46;7.30;;;5.57;;
11735;SDS011;5924;51.398;7.088;2024-01-15T13:24:12;7.20;;;5.50;;
11735;SDS011;5924;51.398;7.088;2024-01-15T13:26:39;11.60;;;6.83;;
11735;SDS011;5924;51.398;7.088;2024-01-15T13:29:05;9.73;;;6.50;;
11735;SDS011;5924;51.398;7.088;2024-01-15T13:31:31;11.27;;;6.80;;
11735;SDS011;5924;51.398;7.088;2024-01-15T13:33:57;14.60;;;6.97;;
11735;SDS011;5924;51.398;7.088;2024-01-15T13:36:23;9.03;;;4.70;;
11735;SDS011;5924;51.398;7.088;2024-01-15T13:38:50;8.27;;;5.07;;
11735;SDS011;5924;51.398;7.088;2024-01-15T13:41:17;4.90;;;4.23;;
11735;SDS011;5924;51.398;7.088;2024-01-15T13:43:53;7.53;;;4.80;;
11735;SDS011;5924;51.398;7.088;2024-01-15T13:46:19;9.47;;;5.57;;
11735;SDS011;5924;51.398;7.088;2024-01-15T13:48:49;4.80;;;4.10;;
11735;SDS011;5924;51.398;7.088;2024-01-15T13:51:15;15.80;;;4.70;;
11735;SDS011;5924;51.398;7.088;2024-01-15T13:53:40;9.40;;;4.23;;
11735;SDS011;5924;51.398;7.088;2024-01-15T13:56:06;8.33;;;5.70;;
11735;SDS011;5924;51.398;7.088;2024-01-15T13:58:33;12.13;;;6.27;;
11735;SDS011;5924;51.398;7.088;2024-01-15T14:01:00;7.87;;;6.30;;
11735;SDS011;5924;51.398;7.088;2024-01-15T14:03:28;6.23;;;5.63;;
11735;SDS011;5924;51.398;7.088;2024-01-15T14:05:54;5.50;;;4.97;;
11735;SDS011;5924;51.398;7.088;2024-01-15T14:08:20;7.90;;;6.17;;
11735;SDS011;5924;51.398;7.088;2024-01-15T14:10:45;5.87;;;5.30;;
11735;SDS011;5924;51.398;7.088;2024-01-15T14:13:11;5.87;;;4.47;;
11735;SDS011;5924;51.398;7.088;2024-01-15T14:15:37;9.93;;;4.80;;
11735;SDS011;5924;51.398;7.088;2024-01-15T14:18:03;7.63;;;4.37;;
11735;SDS011;5924;51.398;7.088;2024-01-15T14:20:28;9.53;;;4.77;;
11735;SDS011;5924;51.398;7.088;2024-01-15T14:22:54;4.83;;;4.43;;
11735;SDS011;5924;51.398;7.088;2024-01-15T14:25:20;11.13;;;3.97;;
11735;SDS011;5924;51.398;7.088;2024-01-15T14:27:46;3.60;;;3.47;;
11735;SDS011;5924;51.398;7.088;2024-01-15T14:30:12;4.10;;;3.80;;
11735;SDS011;5924;51.398;7.088;2024-01-15T14:32:38;4.50;;;3.20;;
11735;SDS011;5924;51.398;7.088;2024-01-15T14:35:06;8.57;;;3.03;;
11735;SDS011;5924;51.398;7.088;2024-01-15T14:37:35;3.27;;;2.87;;
11735;SDS011;5924;51.398;7.088;2024-01-15T14:40:01;3.23;;;3.03;;
11735;SDS011;5924;51.398;7.088;2024-01-15T14:42:29;2.67;;;2.47;;
11735;SDS011;5924;51.398;7.088;2024-01-15T14:44:54;3.63;;;2.97;;
11735;SDS011;5924;51.398;7.088;2024-01-15T14:47:20;2.90;;;2.60;;
11735;SDS011;5924;51.398;7.088;2024-01-15T14:49:48;2.67;;;2.57;;